sensor_id;sensor_type;location;lat;lon;timestamp;P1;durP1;ratioP1;P2;durP2;ratioP2
4096;SDS011;2062;50.694;7.246;2024-03-02T00:00:18;4.88;;;1.70;;
4096;SDS011;2062;50.694;7.246;2024-03-02T00:02:46;5.20;;;1.40;;
4096;SDS011;2062;50.694;7.246;2024-03-02T00:05:16;5.28;;;1.80;;
4096;SDS011;2062;50.694;7.246;2024-03-02T00:07:44;4.83;;;1.50;;
4096;SDS011;2062;50.694;7.246;2024-03-02T00:10:14;5.28;;;1.60;;
4096;SDS011;2062;50.694;7.246;2024-03-02T00:12:46;5.03;;;1.58;;
4096;SDS011;2062;50.694;7.246;2024-03-02T00:15:22;4.60;;;1.70;;
4096;SDS011;2062;50.694;7.246;2024-03-02T00:18:06;5.28;;;1.48;;
4096;SDS011;2062;50.694;7.246;2024-03-02T00:20:34;4.40;;;1.50;;
4096;SDS011;2062;50.694;7.246;2024-03-02T00:23:02;5.13;;;1.77;;
4096;SDS011;2062;50.694;7.246;2024-03-02T00:25:35;4.05;;;1.50;;
4096;SDS011;2062;50.694;7.246;2024-03-02T00:28:04;5.57;;;1.67;;
4096;SDS011;2062;50.694;7.246;2024-03-02T00:30:43;4.93;;;1.60;;
4096;SDS011;2062;50.694;7.246;2024-03-02T00:33:18;4.93;;;1.47;;
4096;SDS011;2062;50.694;7.246;2024-03-02T00:35:47;4.78;;;1.40;;
4096;SDS011;2062;50.694;7.246;2024-03-02T00:38:14;4.13;;;1.50;;
4096;SDS011;2062;50.694;7.246;2024-03-02T00:40:42;4.30;;;1.40;;
4096;SDS011;2062;50.694;7.246;2024-03-02T00:43:11;3.92;;;1.33;;
4096;SDS011;2062;50.694;7.246;2024-03-02T00:46:00;5.67;;;1.50;;
4096;SDS011;2062;50.694;7.246;2024-03-02T00:48:27;5.30;;;1.63;;
4096;SDS011;2062;50.694;7.246;2024-03-02T00:50:57;5.65;;;1.60;;
4096;SDS011;2062;50.694;7.246;2024-03-02T00:53:25;4.40;;;1.30;;
4096;SDS011;2062;50.694;7.246;2024-03-02T00:55:52;5.10;;;1.40;;
4096;SDS011;2062;50.694;7.246;2024-03-02T00:58:19;4.40;;;1.43;;
4096;SDS011;2062;50.694;7.246;2024-03-02T01:00:46;4.55;;;1.25;;
4096;SDS011;2062;50.694;7.246;2024-03-02T01:03:13;4.25;;;1.25;;
4096;SDS011;2062;50.694;7.246;2024-03-02T01:05:40;4.80;;;1.27;;
4096;SDS011;2062;50.694;7.246;2024-03-02T01:08:10;5.38;;;1.40;;
4096;SDS011;2062;50.694;7.246;2024-03-02T01:10:37;3.70;;;1.10;;
4096;SDS011;2062;50.694;7.246;2024-03-02T01:13:03;4.93;;;1.52;;
4096;SDS011;2062;50.694;7.246;2024-03-02T01:15:31;4.10;;;1.40;;
4096;SDS011;2062;50.694;7.246;2024-03-02T01:17:58;7.45;;;1.13;;
4096;SDS011;2062;50.694;7.246;2024-03-02T01:20:25;5.43;;;1.52;;
4096;SDS011;2062;50.694;7.246;2024-03-02T01:22:52;4.57;;;1.10;;
4096;SDS011;2062;50.694;7.246;2024-03-02T01:25:20;3.97;;;1.10;;
4096;SDS011;2062;50.694;7.246;2024-03-02T01:27:47;4.72;;;1.20;;
4096;SDS011;2062;50.694;7.246;2024-03-02T01:30:13;4.05;;;1.13;;
4096;SDS011;2062;50.694;7.246;2024-03-02T01:32:40;4.53;;;1.40;;
4096;SDS011;2062;50.694;7.246;2024-03-02T01:35:07;4.37;;;1.20;;
4096;SDS011;2062;50.694;7.246;2024-03-02T01:37:34;4.65;;;1.10;;
4096;SDS011;2062;50.694;7.246;2024-03-02T01:40:01;4.15;;;1.10;;
4096;SDS011;2062;50.694;7.246;2024-03-02T01:42:35;5.15;;;1.48;;
4096;SDS011;2062;50.694;7.246;2024-03-02T01:45:03;4.60;;;1.10;;
4096;SDS011;2062;50.694;7.246;2024-03-02T01:47:31;4.83;;;1.00;;
4096;SDS011;2062;50.694;7.246;2024-03-02T01:49:58;3.50;;;1.02;;
4096;SDS011;2062;50.694;7.246;2024-03-02T01:52:25;3.95;;;0.98;;
4096;SDS011;2062;50.694;7.246;2024-03-02T01:54:53;4.10;;;1.15;;
4096;SDS011;2062;50.694;7.246;2024-03-02T01:57:19;4.57;;;1.10;;
4096;SDS011;2062;50.694;7.246;2024-03-02T01:59:48;5.17;;;1.27;;
4096;SDS011;2062;50.694;7.246;2024-03-02T02:02:15;4.07;;;1.17;;
4096;SDS011;2062;50.694;7.246;2024-03-02T02:04:42;3.80;;;1.08;;
4096;SDS011;2062;50.694;7.246;2024-03-02T02:07:09;4.28;;;1.10;;
4096;SDS011;2062;50.694;7.246;2024-03-02T02:09:36;3.75;;;1.02;;
4096;SDS011;2062;50.694;7.246;2024-03-02T02:12:03;3.90;;;1.10;;
4096;SDS011;2062;50.694;7.246;2024-03-02T02:14:31;3.85;;;1.08;;
4096;SDS011;2062;50.694;7.246;2024-03-02T02:17:00;4.40;;;1.10;;
4096;SDS011;2062;50.694;7.246;2024-03-02T02:19:26;4.15;;;1.10;;
4096;SDS011;2062;50.694;7.246;2024-03-02T02:21:58;4.50;;;1.30;;
4096;SDS011;2062;50.694;7.246;2024-03-02T02:24:24;3.80;;;1.00;;
4096;SDS011;2062;50.694;7.246;2024-03-02T02:26:51;4.05;;;1.15;;
4096;SDS011;2062;50.694;7.246;2024-03-02T02:29:18;3.80;;;1.20;;
4096;SDS011;2062;50.694;7.246;2024-03-02T02:31:45;3.70;;;1.02;;
4096;SDS011;2062;50.694;7.246;2024-03-02T02:34:11;5.43;;;1.20;;
4096;SDS011;2062;50.694;7.246;2024-03-02T02:36:40;3.70;;;1.10;;
4096;SDS011;2062;50.694;7.246;2024-03-02T02:39:09;3.10;;;1.00;;
4096;SDS011;2062;50.694;7.246;2024-03-02T02:41:37;4.90;;;1.13;;
4096;SDS011;2062;50.694;7.246;2024-03-02T02:44:04;4.40;;;1.20;;
4096;SDS011;2062;50.694;7.246;2024-03-02T02:46:31;3.45;;;0.80;;
4096;SDS011;2062;50.694;7.246;2024-03-02T02:48:58;6.30;;;1.20;;
4096;SDS011;2062;50.694;7.246;2024-03-02T02:51:24;4.75;;;1.20;;
4096;SDS011;2062;50.694;7.246;2024-03-02T02:53:51;3.88;;;1.10;;
4096;SDS011;2062;50.694;7.246;2024-03-02T02:56:19;3.95;;;1.20;;
4096;SDS011;2062;50.694;7.246;2024-03-02T02:58:46;4.65;;;1.20;;
4096;SDS011;2062;50.694;7.246;2024-03-02T03:01:13;4.10;;;1.30;;
4096;SDS011;2062;50.694;7.246;2024-03-02T03:03:42;3.70;;;1.02;;
4096;SDS011;2062;50.694;7.246;2024-03-02T03:06:08;4.28;;;1.15;;
4096;SDS011;2062;50.694;7.246;2024-03-02T03:08:35;3.78;;;1.00;;
4096;SDS011;2062;50.694;7.246;2024-03-02T03:11:02;3.50;;;1.00;;
4096;SDS011;2062;50.694;7.246;2024-03-02T03:13:31;4.10;;;1.20;;
4096;SDS011;2062;50.694;7.246;2024-03-02T03:15:58;4.40;;;1.00;;
4096;SDS011;2062;50.694;7.246;2024-03-02T03:18:25;4.47;;;1.38;;
4096;SDS011;2062;50.694;7.246;2024-03-02T03:20:52;3.78;;;1.02;;
4096;SDS011;2062;50.694;7.246;2024-03-02T03:23:19;4.03;;;1.00;;
4096;SDS011;2062;50.694;7.246;2024-03-02T03:25:45;4.33;;;1.20;;
4096;SDS011;2062;50.694;7.246;2024-03-02T03:28:12;4.30;;;1.20;;
4096;SDS011;2062;50.694;7.246;2024-03-02T03:30:40;3.88;;;1.10;;
4096;SDS011;2062;50.694;7.246;2024-03-02T03:33:08;5.57;;;1.05;;
4096;SDS011;2062;50.694;7.246;2024-03-02T03:35:34;4.72;;;0.90;;
4096;SDS011;2062;50.694;7.246;2024-03-02T03:38:02;3.73;;;1.00;;
4096;SDS011;2062;50.694;7.246;2024-03-02T03:40:29;4.53;;;1.30;;
4096;SDS011;2062;50.694;7.246;2024-03-02T03:42:56;4.57;;;1.15;;
4096;SDS011;2062;50.694;7.246;2024-03-02T03:45:24;4.38;;;1.10;;
4096;SDS011;2062;50.694;7.246;2024-03-02T03:47:53;4.68;;;1.30;;
4096;SDS011;2062;50.694;7.246;2024-03-02T03:50:20;5.80;;;1.30;;
4096;SDS011;2062;50.694;7.246;2024-03-02T03:52:46;4.25;;;1.20;;
4096;SDS011;2062;50.694;7.246;2024-03-02T03:55:13;3.72;;;0.90;;
4096;SDS011;2062;50.694;7.246;2024-03-02T03:57:40;5.88;;;1.25;;
4096;SDS011;2062;50.694;7.246;2024-03-02T04:00:07;5.07;;;1.13;;
4096;SDS011;2062;50.694;7.246;2024-03-02T04:02:36;4.07;;;1.07;;
4096;SDS011;2062;50.694;7.246;2024-03-02T04:05:05;4.00;;;1.20;;
4096;SDS011;2062;50.694;7.246;2024-03-02T04:07:34;4.55;;;1.40;;
4096;SDS011;2062;50.694;7.246;2024-03-02T04:10:05;3.92;;;1.02;;
4096;SDS011;2062;50.694;7.246;2024-03-02T04:12:33;6.57;;;1.00;;
4096;SDS011;2062;50.694;7.246;2024-03-02T04:15:00;4.50;;;1.10;;
4096;SDS011;2062;50.694;7.246;2024-03-02T04:17:29;3.88;;;1.08;;
4096;SDS011;2062;50.694;7.246;2024-03-02T04:19:57;4.70;;;1.35;;
4096;SDS011;2062;50.694;7.246;2024-03-02T04:22:25;3.85;;;1.23;;
4096;SDS011;2062;50.694;7.246;2024-03-02T04:24:52;5.30;;;1.23;;
4096;SDS011;2062;50.694;7.246;2024-03-02T04:27:19;3.77;;;1.10;;
4096;SDS011;2062;50.694;7.246;2024-03-02T04:29:46;4.53;;;1.13;;
4096;SDS011;2062;50.694;7.246;2024-03-02T04:32:12;3.80;;;1.13;;
4096;SDS011;2062;50.694;7.246;2024-03-02T04:34:39;4.25;;;1.13;;
4096;SDS011;2062;50.694;7.246;2024-03-02T04:37:06;4.22;;;1.50;;
4096;SDS011;2062;50.694;7.246;2024-03-02T04:39:35;4.00;;;1.07;;
4096;SDS011;2062;50.694;7.246;2024-03-02T04:42:02;4.53;;;1.30;;
4096;SDS011;2062;50.694;7.246;2024-03-02T04:44:29;5.45;;;1.58;;
4096;SDS011;2062;50.694;7.246;2024-03-02T04:46:56;4.28;;;1.17;;
4096;SDS011;2062;50.694;7.246;2024-03-02T04:49:23;4.85;;;1.50;;
4096;SDS011;2062;50.694;7.246;2024-03-02T04:51:50;4.90;;;1.53;;
4096;SDS011;2062;50.694;7.246;2024-03-02T04:54:17;4.75;;;1.50;;
4096;SDS011;2062;50.694;7.246;2024-03-02T04:56:45;4.82;;;1.52;;
4096;SDS011;2062;50.694;7.246;2024-03-02T04:59:15;5.05;;;1.60;;
4096;SDS011;2062;50.694;7.246;2024-03-02T05:01:42;4.95;;;1.40;;
4096;SDS011;2062;50.694;7.246;2024-03-02T05:04:09;5.13;;;1.57;;
4096;SDS011;2062;50.694;7.246;2024-03-02T05:06:37;5.53;;;1.42;;
4096;SDS011;2062;50.694;7.246;2024-03-02T05:09:05;4.80;;;1.45;;
4096;SDS011;2062;50.694;7.246;2024-03-02T05:11:31;4.75;;;1.30;;
4096;SDS011;2062;50.694;7.246;2024-03-02T05:14:20;4.53;;;1.20;;
4096;SDS011;2062;50.694;7.246;2024-03-02T05:16:45;3.70;;;1.10;;
4096;SDS011;2062;50.694;7.246;2024-03-02T05:19:12;5.28;;;1.10;;
4096;SDS011;2062;50.694;7.246;2024-03-02T05:21:39;4.72;;;1.27;;
4096;SDS011;2062;50.694;7.246;2024-03-02T05:24:06;5.00;;;1.17;;
4096;SDS011;2062;50.694;7.246;2024-03-02T05:26:33;4.18;;;1.13;;
4096;SDS011;2062;50.694;7.246;2024-03-02T05:28:59;4.43;;;1.40;;
4096;SDS011;2062;50.694;7.246;2024-03-02T05:31:28;6.03;;;1.52;;
4096;SDS011;2062;50.694;7.246;2024-03-02T05:33:54;4.60;;;1.60;;
4096;SDS011;2062;50.694;7.246;2024-03-02T05:36:21;5.55;;;1.50;;
4096;SDS011;2062;50.694;7.246;2024-03-02T05:38:48;6.05;;;1.98;;
4096;SDS011;2062;50.694;7.246;2024-03-02T05:41:14;5.13;;;1.80;;
4096;SDS011;2062;50.694;7.246;2024-03-02T05:43:41;5.63;;;1.92;;
4096;SDS011;2062;50.694;7.246;2024-03-02T05:46:08;5.47;;;1.77;;
4096;SDS011;2062;50.694;7.246;2024-03-02T05:48:36;6.05;;;1.60;;
4096;SDS011;2062;50.694;7.246;2024-03-02T05:51:03;6.03;;;2.20;;
4096;SDS011;2062;50.694;7.246;2024-03-02T05:53:30;6.30;;;2.27;;
4096;SDS011;2062;50.694;7.246;2024-03-02T05:55:57;5.10;;;1.63;;
4096;SDS011;2062;50.694;7.246;2024-03-02T05:58:23;6.13;;;2.40;;
4096;SDS011;2062;50.694;7.246;2024-03-02T06:01:02;5.65;;;1.92;;
4096;SDS011;2062;50.694;7.246;2024-03-02T06:03:29;7.80;;;2.15;;
4096;SDS011;2062;50.694;7.246;2024-03-02T06:05:57;7.97;;;2.47;;
4096;SDS011;2062;50.694;7.246;2024-03-02T06:08:24;5.30;;;2.10;;
4096;SDS011;2062;50.694;7.246;2024-03-02T06:10:51;6.88;;;2.30;;
4096;SDS011;2062;50.694;7.246;2024-03-02T06:13:18;5.63;;;2.08;;
4096;SDS011;2062;50.694;7.246;2024-03-02T06:15:45;5.25;;;1.90;;
4096;SDS011;2062;50.694;7.246;2024-03-02T06:18:12;5.23;;;1.73;;
4096;SDS011;2062;50.694;7.246;2024-03-02T06:20:39;5.97;;;1.80;;
4096;SDS011;2062;50.694;7.246;2024-03-02T06:23:07;5.40;;;1.65;;
4096;SDS011;2062;50.694;7.246;2024-03-02T06:25:34;4.78;;;1.63;;
4096;SDS011;2062;50.694;7.246;2024-03-02T06:28:01;4.93;;;1.50;;
4096;SDS011;2062;50.694;7.246;2024-03-02T06:30:29;5.63;;;1.50;;
4096;SDS011;2062;50.694;7.246;2024-03-02T06:32:56;5.00;;;1.45;;
4096;SDS011;2062;50.694;7.246;2024-03-02T06:35:22;4.93;;;1.60;;
4096;SDS011;2062;50.694;7.246;2024-03-02T06:37:49;5.75;;;2.00;;
4096;SDS011;2062;50.694;7.246;2024-03-02T06:40:17;7.35;;;2.13;;
4096;SDS011;2062;50.694;7.246;2024-03-02T06:42:44;7.03;;;2.30;;
4096;SDS011;2062;50.694;7.246;2024-03-02T06:45:11;6.90;;;2.78;;
4096;SDS011;2062;50.694;7.246;2024-03-02T06:47:37;7.65;;;3.20;;
4096;SDS011;2062;50.694;7.246;2024-03-02T06:50:04;6.07;;;2.30;;
4096;SDS011;2062;50.694;7.246;2024-03-02T06:52:32;6.90;;;2.30;;
4096;SDS011;2062;50.694;7.246;2024-03-02T06:54:58;5.00;;;2.00;;
4096;SDS011;2062;50.694;7.246;2024-03-02T06:57:26;7.88;;;2.70;;
4096;SDS011;2062;50.694;7.246;2024-03-02T06:59:53;7.50;;;2.13;;
4096;SDS011;2062;50.694;7.246;2024-03-02T07:02:23;5.88;;;2.22;;
4096;SDS011;2062;50.694;7.246;2024-03-02T07:04:51;6.25;;;2.42;;
4096;SDS011;2062;50.694;7.246;2024-03-02T07:07:18;6.47;;;2.37;;
4096;SDS011;2062;50.694;7.246;2024-03-02T07:09:45;6.30;;;2.30;;
4096;SDS011;2062;50.694;7.246;2024-03-02T07:12:12;5.57;;;2.10;;
4096;SDS011;2062;50.694;7.246;2024-03-02T07:14:40;5.95;;;2.22;;
4096;SDS011;2062;50.694;7.246;2024-03-02T07:17:25;8.57;;;2.90;;
4096;SDS011;2062;50.694;7.246;2024-03-02T07:19:52;7.20;;;2.70;;
4096;SDS011;2062;50.694;7.246;2024-03-02T07:22:18;6.32;;;2.40;;
4096;SDS011;2062;50.694;7.246;2024-03-02T07:24:45;9.68;;;3.35;;
4096;SDS011;2062;50.694;7.246;2024-03-02T07:27:12;8.55;;;3.17;;
4096;SDS011;2062;50.694;7.246;2024-03-02T07:29:41;8.63;;;2.92;;
4096;SDS011;2062;50.694;7.246;2024-03-02T07:32:08;6.97;;;2.90;;
4096;SDS011;2062;50.694;7.246;2024-03-02T07:34:36;5.82;;;2.50;;
4096;SDS011;2062;50.694;7.246;2024-03-02T07:37:03;8.75;;;2.80;;
4096;SDS011;2062;50.694;7.246;2024-03-02T07:39:30;6.72;;;2.70;;
4096;SDS011;2062;50.694;7.246;2024-03-02T07:41:57;7.75;;;2.70;;
4096;SDS011;2062;50.694;7.246;2024-03-02T07:44:25;7.87;;;2.43;;
4096;SDS011;2062;50.694;7.246;2024-03-02T07:46:53;7.05;;;2.58;;
4096;SDS011;2062;50.694;7.246;2024-03-02T07:49:20;6.47;;;2.15;;
4096;SDS011;2062;50.694;7.246;2024-03-02T07:51:47;7.00;;;2.47;;
4096;SDS011;2062;50.694;7.246;2024-03-02T07:54:14;7.00;;;2.35;;
4096;SDS011;2062;50.694;7.246;2024-03-02T07:56:40;5.97;;;2.20;;
4096;SDS011;2062;50.694;7.246;2024-03-02T07:59:07;7.40;;;2.38;;
4096;SDS011;2062;50.694;7.246;2024-03-02T08:01:34;5.75;;;2.20;;
4096;SDS011;2062;50.694;7.246;2024-03-02T08:04:03;6.95;;;2.20;;
4096;SDS011;2062;50.694;7.246;2024-03-02T08:06:30;6.55;;;2.47;;
4096;SDS011;2062;50.694;7.246;2024-03-02T08:08:57;6.33;;;2.20;;
4096;SDS011;2062;50.694;7.246;2024-03-02T08:11:24;6.72;;;2.33;;
4096;SDS011;2062;50.694;7.246;2024-03-02T08:13:52;8.57;;;2.97;;
4096;SDS011;2062;50.694;7.246;2024-03-02T08:16:20;8.35;;;2.50;;
4096;SDS011;2062;50.694;7.246;2024-03-02T08:18:47;8.70;;;2.90;;
4096;SDS011;2062;50.694;7.246;2024-03-02T08:21:15;6.13;;;2.60;;
4096;SDS011;2062;50.694;7.246;2024-03-02T08:23:42;6.28;;;2.17;;
4096;SDS011;2062;50.694;7.246;2024-03-02T08:26:09;6.65;;;2.20;;
4096;SDS011;2062;50.694;7.246;2024-03-02T08:28:37;6.07;;;2.22;;
4096;SDS011;2062;50.694;7.246;2024-03-02T08:31:05;5.55;;;2.50;;
4096;SDS011;2062;50.694;7.246;2024-03-02T08:33:32;5.80;;;2.47;;
4096;SDS011;2062;50.694;7.246;2024-03-02T08:35:59;5.57;;;2.25;;
4096;SDS011;2062;50.694;7.246;2024-03-02T08:38:27;6.15;;;2.10;;
4096;SDS011;2062;50.694;7.246;2024-03-02T08:40:54;5.45;;;2.05;;
4096;SDS011;2062;50.694;7.246;2024-03-02T08:43:21;5.28;;;2.22;;
4096;SDS011;2062;50.694;7.246;2024-03-02T08:45:48;6.30;;;2.40;;
4096;SDS011;2062;50.694;7.246;2024-03-02T08:48:16;7.80;;;2.30;;
4096;SDS011;2062;50.694;7.246;2024-03-02T08:50:42;6.25;;;2.30;;
4096;SDS011;2062;50.694;7.246;2024-03-02T08:53:09;5.20;;;2.25;;
4096;SDS011;2062;50.694;7.246;2024-03-02T08:55:37;5.72;;;2.30;;
4096;SDS011;2062;50.694;7.246;2024-03-02T08:58:04;6.10;;;2.30;;
4096;SDS011;2062;50.694;7.246;2024-03-02T09:00:31;5.78;;;2.35;;
4096;SDS011;2062;50.694;7.246;2024-03-02T09:02:57;6.68;;;2.40;;
4096;SDS011;2062;50.694;7.246;2024-03-02T09:05:24;7.13;;;2.17;;
4096;SDS011;2062;50.694;7.246;2024-03-02T09:07:51;5.70;;;2.42;;
4096;SDS011;2062;50.694;7.246;2024-03-02T09:10:18;6.17;;;2.30;;
4096;SDS011;2062;50.694;7.246;2024-03-02T09:12:46;5.38;;;2.13;;
4096;SDS011;2062;50.694;7.246;2024-03-02T09:15:13;6.40;;;2.58;;
4096;SDS011;2062;50.694;7.246;2024-03-02T09:17:39;6.20;;;2.50;;
4096;SDS011;2062;50.694;7.246;2024-03-02T09:20:06;5.15;;;2.20;;
4096;SDS011;2062;50.694;7.246;2024-03-02T09:22:34;5.90;;;2.00;;
4096;SDS011;2062;50.694;7.246;2024-03-02T09:25:00;5.55;;;1.92;;
4096;SDS011;2062;50.694;7.246;2024-03-02T09:27:27;6.20;;;2.00;;
4096;SDS011;2062;50.694;7.246;2024-03-02T09:29:55;4.90;;;1.67;;
4096;SDS011;2062;50.694;7.246;2024-03-02T09:32:22;5.35;;;1.52;;
4096;SDS011;2062;50.694;7.246;2024-03-02T09:34:49;4.67;;;1.50;;
4096;SDS011;2062;50.694;7.246;2024-03-02T09:37:17;4.82;;;1.42;;
4096;SDS011;2062;50.694;7.246;2024-03-02T09:39:44;4.50;;;1.58;;
4096;SDS011;2062;50.694;7.246;2024-03-02T09:42:11;3.97;;;1.35;;
4096;SDS011;2062;50.694;7.246;2024-03-02T09:44:39;4.07;;;1.30;;
4096;SDS011;2062;50.694;7.246;2024-03-02T09:47:07;5.53;;;1.50;;
4096;SDS011;2062;50.694;7.246;2024-03-02T09:49:34;5.65;;;1.38;;
4096;SDS011;2062;50.694;7.246;2024-03-02T09:52:01;5.55;;;1.70;;
4096;SDS011;2062;50.694;7.246;2024-03-02T09:54:30;4.85;;;1.58;;
4096;SDS011;2062;50.694;7.246;2024-03-02T09:56:57;5.68;;;1.85;;
4096;SDS011;2062;50.694;7.246;2024-03-02T09:59:26;4.40;;;1.50;;
4096;SDS011;2062;50.694;7.246;2024-03-02T10:01:57;5.22;;;1.95;;
4096;SDS011;2062;50.694;7.246;2024-03-02T10:04:26;5.57;;;1.98;;
4096;SDS011;2062;50.694;7.246;2024-03-02T10:07:09;6.78;;;1.92;;
4096;SDS011;2062;50.694;7.246;2024-03-02T10:09:37;5.20;;;1.70;;
4096;SDS011;2062;50.694;7.246;2024-03-02T10:12:04;4.43;;;1.50;;
4096;SDS011;2062;50.694;7.246;2024-03-02T10:14:33;4.50;;;1.35;;
4096;SDS011;2062;50.694;7.246;2024-03-02T10:17:03;5.53;;;1.30;;
4096;SDS011;2062;50.694;7.246;2024-03-02T10:19:32;4.15;;;1.30;;
4096;SDS011;2062;50.694;7.246;2024-03-02T10:22:02;4.45;;;1.23;;
4096;SDS011;2062;50.694;7.246;2024-03-02T10:24:34;5.00;;;1.40;;
4096;SDS011;2062;50.694;7.246;2024-03-02T10:27:06;4.65;;;1.40;;
4096;SDS011;2062;50.694;7.246;2024-03-02T10:29:36;4.40;;;1.70;;
4096;SDS011;2062;50.694;7.246;2024-03-02T10:32:04;4.50;;;1.63;;
4096;SDS011;2062;50.694;7.246;2024-03-02T10:34:33;5.00;;;1.50;;
4096;SDS011;2062;50.694;7.246;2024-03-02T10:37:01;4.90;;;1.53;;
4096;SDS011;2062;50.694;7.246;2024-03-02T10:39:28;4.10;;;1.55;;
4096;SDS011;2062;50.694;7.246;2024-03-02T10:41:56;5.80;;;1.60;;
4096;SDS011;2062;50.694;7.246;2024-03-02T10:44:24;4.40;;;1.63;;
4096;SDS011;2062;50.694;7.246;2024-03-02T10:46:52;5.25;;;1.80;;
4096;SDS011;2062;50.694;7.246;2024-03-02T10:49:21;6.40;;;1.60;;
4096;SDS011;2062;50.694;7.246;2024-03-02T10:51:51;5.88;;;1.85;;
4096;SDS011;2062;50.694;7.246;2024-03-02T10:54:18;5.07;;;1.80;;
4096;SDS011;2062;50.694;7.246;2024-03-02T10:56:51;4.57;;;1.60;;
4096;SDS011;2062;50.694;7.246;2024-03-02T10:59:21;5.25;;;2.00;;
4096;SDS011;2062;50.694;7.246;2024-03-02T11:01:53;4.63;;;1.73;;
4096;SDS011;2062;50.694;7.246;2024-03-02T11:04:24;5.38;;;1.73;;
4096;SDS011;2062;50.694;7.246;2024-03-02T11:06:54;6.13;;;1.60;;
4096;SDS011;2062;50.694;7.246;2024-03-02T11:09:27;4.05;;;1.50;;
4096;SDS011;2062;50.694;7.246;2024-03-02T11:11:56;5.75;;;1.85;;
4096;SDS011;2062;50.694;7.246;2024-03-02T11:14:29;4.80;;;1.50;;
4096;SDS011;2062;50.694;7.246;2024-03-02T11:16:58;5.43;;;1.42;;
4096;SDS011;2062;50.694;7.246;2024-03-02T11:19:26;5.13;;;1.55;;
4096;SDS011;2062;50.694;7.246;2024-03-02T11:21:55;6.25;;;1.30;;
4096;SDS011;2062;50.694;7.246;2024-03-02T11:24:28;4.05;;;1.38;;
4096;SDS011;2062;50.694;7.246;2024-03-02T11:26:58;4.27;;;1.00;;
4096;SDS011;2062;50.694;7.246;2024-03-02T11:32:13;4.07;;;0.93;;
4096;SDS011;2062;50.694;7.246;2024-03-02T11:34:41;3.72;;;0.90;;
4096;SDS011;2062;50.694;7.246;2024-03-02T11:37:13;4.07;;;0.95;;
4096;SDS011;2062;50.694;7.246;2024-03-02T11:39:40;4.10;;;0.87;;
4096;SDS011;2062;50.694;7.246;2024-03-02T11:42:09;3.92;;;1.15;;
4096;SDS011;2062;50.694;7.246;2024-03-02T11:44:39;3.92;;;1.00;;
4096;SDS011;2062;50.694;7.246;2024-03-02T11:47:07;4.95;;;1.00;;
4096;SDS011;2062;50.694;7.246;2024-03-02T11:49:37;4.53;;;1.33;;
4096;SDS011;2062;50.694;7.246;2024-03-02T11:52:05;4.47;;;1.57;;
4096;SDS011;2062;50.694;7.246;2024-03-02T11:54:34;3.75;;;1.40;;
4096;SDS011;2062;50.694;7.246;2024-03-02T11:57:04;6.20;;;1.80;;
4096;SDS011;2062;50.694;7.246;2024-03-02T11:59:32;4.70;;;1.58;;
4096;SDS011;2062;50.694;7.246;2024-03-02T12:01:59;4.55;;;1.50;;
4096;SDS011;2062;50.694;7.246;2024-03-02T12:04:26;4.50;;;1.60;;
4096;SDS011;2062;50.694;7.246;2024-03-02T12:06:54;4.47;;;1.60;;
4096;SDS011;2062;50.694;7.246;2024-03-02T12:09:21;5.22;;;1.60;;
4096;SDS011;2062;50.694;7.246;2024-03-02T12:11:49;4.38;;;1.60;;
4096;SDS011;2062;50.694;7.246;2024-03-02T12:14:28;4.43;;;1.40;;
4096;SDS011;2062;50.694;7.246;2024-03-02T12:16:55;4.27;;;1.60;;
4096;SDS011;2062;50.694;7.246;2024-03-02T12:19:23;3.97;;;1.40;;
4096;SDS011;2062;50.694;7.246;2024-03-02T12:21:50;4.35;;;1.38;;
4096;SDS011;2062;50.694;7.246;2024-03-02T12:24:17;3.55;;;1.00;;
4096;SDS011;2062;50.694;7.246;2024-03-02T12:26:44;4.03;;;1.40;;
4096;SDS011;2062;50.694;7.246;2024-03-02T12:29:13;4.50;;;1.10;;
4096;SDS011;2062;50.694;7.246;2024-03-02T12:31:41;3.92;;;1.40;;
4096;SDS011;2062;50.694;7.246;2024-03-02T12:34:10;4.70;;;1.35;;
4096;SDS011;2062;50.694;7.246;2024-03-02T12:36:38;4.50;;;1.35;;
4096;SDS011;2062;50.694;7.246;2024-03-02T12:39:06;4.70;;;1.60;;
4096;SDS011;2062;50.694;7.246;2024-03-02T12:41:35;4.50;;;1.30;;
4096;SDS011;2062;50.694;7.246;2024-03-02T12:44:01;5.10;;;1.40;;
4096;SDS011;2062;50.694;7.246;2024-03-02T12:46:29;3.92;;;1.33;;
4096;SDS011;2062;50.694;7.246;2024-03-02T12:48:56;4.10;;;1.13;;
4096;SDS011;2062;50.694;7.246;2024-03-02T12:51:24;3.10;;;0.90;;
4096;SDS011;2062;50.694;7.246;2024-03-02T12:53:53;4.43;;;0.80;;
4096;SDS011;2062;50.694;7.246;2024-03-02T12:56:20;3.13;;;0.90;;
4096;SDS011;2062;50.694;7.246;2024-03-02T12:58:47;3.40;;;0.77;;
4096;SDS011;2062;50.694;7.246;2024-03-02T13:01:14;3.20;;;0.80;;
4096;SDS011;2062;50.694;7.246;2024-03-02T13:03:45;3.13;;;0.80;;
4096;SDS011;2062;50.694;7.246;2024-03-02T13:06:14;3.10;;;0.90;;
4096;SDS011;2062;50.694;7.246;2024-03-02T13:08:42;3.78;;;0.90;;
4096;SDS011;2062;50.694;7.246;2024-03-02T13:11:10;3.05;;;0.82;;
4096;SDS011;2062;50.694;7.246;2024-03-02T13:13:38;3.13;;;0.60;;
4096;SDS011;2062;50.694;7.246;2024-03-02T13:16:07;3.00;;;0.80;;
4096;SDS011;2062;50.694;7.246;2024-03-02T13:18:34;3.00;;;0.70;;
4096;SDS011;2062;50.694;7.246;2024-03-02T13:21:03;4.35;;;1.10;;
4096;SDS011;2062;50.694;7.246;2024-03-02T13:23:29;4.07;;;1.30;;
4096;SDS011;2062;50.694;7.246;2024-03-02T13:25:56;4.50;;;1.13;;
4096;SDS011;2062;50.694;7.246;2024-03-02T13:28:24;3.65;;;1.15;;
4096;SDS011;2062;50.694;7.246;2024-03-02T13:30:51;5.20;;;1.17;;
4096;SDS011;2062;50.694;7.246;2024-03-02T13:33:18;3.80;;;1.13;;
4096;SDS011;2062;50.694;7.246;2024-03-02T13:35:47;4.70;;;1.20;;
4096;SDS011;2062;50.694;7.246;2024-03-02T13:38:16;4.28;;;1.38;;
4096;SDS011;2062;50.694;7.246;2024-03-02T13:40:43;3.53;;;1.30;;
4096;SDS011;2062;50.694;7.246;2024-03-02T13:43:09;4.20;;;1.30;;
4096;SDS011;2062;50.694;7.246;2024-03-02T13:45:36;3.70;;;1.08;;
4096;SDS011;2062;50.694;7.246;2024-03-02T13:48:03;3.72;;;1.00;;
4096;SDS011;2062;50.694;7.246;2024-03-02T13:50:31;4.15;;;1.20;;
4096;SDS011;2062;50.694;7.246;2024-03-02T13:52:58;3.78;;;1.20;;
4096;SDS011;2062;50.694;7.246;2024-03-02T13:55:26;3.60;;;1.10;;
4096;SDS011;2062;50.694;7.246;2024-03-02T13:57:53;3.58;;;1.05;;
4096;SDS011;2062;50.694;7.246;2024-03-02T14:00:20;4.38;;;1.40;;
4096;SDS011;2062;50.694;7.246;2024-03-02T14:02:47;3.55;;;1.17;;
4096;SDS011;2062;50.694;7.246;2024-03-02T14:05:15;3.25;;;1.00;;
4096;SDS011;2062;50.694;7.246;2024-03-02T14:07:42;3.87;;;1.20;;
4096;SDS011;2062;50.694;7.246;2024-03-02T14:10:09;3.60;;;1.20;;
4096;SDS011;2062;50.694;7.246;2024-03-02T14:12:37;5.05;;;1.08;;
4096;SDS011;2062;50.694;7.246;2024-03-02T14:15:04;4.85;;;1.20;;
4096;SDS011;2062;50.694;7.246;2024-03-02T14:17:32;3.65;;;1.10;;
4096;SDS011;2062;50.694;7.246;2024-03-02T14:19:59;4.07;;;1.20;;
4096;SDS011;2062;50.694;7.246;2024-03-02T14:22:26;3.80;;;0.90;;
4096;SDS011;2062;50.694;7.246;2024-03-02T14:24:53;3.95;;;1.20;;
4096;SDS011;2062;50.694;7.246;2024-03-02T14:27:20;3.22;;;0.90;;
4096;SDS011;2062;50.694;7.246;2024-03-02T14:29:48;3.78;;;1.10;;
4096;SDS011;2062;50.694;7.246;2024-03-02T14:32:15;3.27;;;0.90;;
4096;SDS011;2062;50.694;7.246;2024-03-02T14:34:42;4.28;;;1.23;;
4096;SDS011;2062;50.694;7.246;2024-03-02T14:37:11;4.25;;;0.93;;
4096;SDS011;2062;50.694;7.246;2024-03-02T14:39:38;3.20;;;0.90;;
4096;SDS011;2062;50.694;7.246;2024-03-02T14:42:05;4.85;;;1.00;;
4096;SDS011;2062;50.694;7.246;2024-03-02T14:44:32;4.47;;;1.20;;
4096;SDS011;2062;50.694;7.246;2024-03-02T14:47:01;3.70;;;1.10;;
4096;SDS011;2062;50.694;7.246;2024-03-02T14:49:29;3.58;;;1.10;;
4096;SDS011;2062;50.694;7.246;2024-03-02T14:51:56;4.13;;;0.98;;
4096;SDS011;2062;50.694;7.246;2024-03-02T14:54:23;4.18;;;1.10;;
4096;SDS011;2062;50.694;7.246;2024-03-02T14:56:49;3.63;;;1.13;;
4096;SDS011;2062;50.694;7.246;2024-03-02T14:59:16;3.85;;;1.15;;
4096;SDS011;2062;50.694;7.246;2024-03-02T15:01:43;3.50;;;1.00;;
4096;SDS011;2062;50.694;7.246;2024-03-02T15:04:12;4.00;;;0.98;;
4096;SDS011;2062;50.694;7.246;2024-03-02T15:06:41;3.00;;;0.90;;
4096;SDS011;2062;50.694;7.246;2024-03-02T15:09:08;4.30;;;0.97;;
4096;SDS011;2062;50.694;7.246;2024-03-02T15:11:35;4.65;;;0.90;;
4096;SDS011;2062;50.694;7.246;2024-03-02T15:14:01;2.92;;;0.80;;
4096;SDS011;2062;50.694;7.246;2024-03-02T15:16:28;3.58;;;0.90;;
4096;SDS011;2062;50.694;7.246;2024-03-02T15:18:55;3.47;;;1.00;;
4096;SDS011;2062;50.694;7.246;2024-03-02T15:21:23;3.33;;;0.87;;